sensor_id;sensor_type;location;lat;lon;timestamp;pressure;altitude;pressure_sealevel;temperature;humidity
29433;BME280;16405;53.964;13.448;2023-04-01T00:01:13;99416.53;;;3.79;100.00
29433;BME280;16405;53.964;13.448;2023-04-01T00:03:40;99412.50;;;3.72;100.00
29433;BME280;16405;53.964;13.448;2023-04-01T00:06:06;99436.16;;;3.66;100.00
29433;BME280;16405;53.964;13.448;2023-04-01T00:08:41;99426.34;;;3.73;100.00
29433;BME280;16405;53.964;13.448;2023-04-01T00:11:07;99421.88;;;3.76;100.00
29433;BME280;16405;53.964;13.448;2023-04-01T00:13:33;99430.53;;;3.77;100.00
29433;BME280;16405;53.964;13.448;2023-04-01T00:15:59;99428.03;;;3.74;100.00
29433;BME280;16405;53.964;13.448;2023-04-01T00:18:32;99423.56;;;3.77;100.00
29433;BME280;16405;53.964;13.448;2023-04-01T00:20:58;99418.91;;;3.85;100.00
29433;BME280;16405;53.964;13.448;2023-04-01T00:23:25;99428.53;;;3.83;100.00
29433;BME280;16405;53.964;13.448;2023-04-01T00:25:54;99438.22;;;3.80;100.00
29433;BME280;16405;53.964;13.448;2023-04-01T00:28:21;99436.28;;;3.63;100.00
29433;BME280;16405;53.964;13.448;2023-04-01T00:30:47;99432.81;;;3.62;100.00
29433;BME280;16405;53.964;13.448;2023-04-01T00:33:13;99428.63;;;3.58;100.00
29433;BME280;16405;53.964;13.448;2023-04-01T00:35:40;99426.97;;;3.57;100.00
29433;BME280;16405;53.964;13.448;2023-04-01T00:38:06;99419.09;;;3.59;100.00
29433;BME280;16405;53.964;13.448;2023-04-01T00:40:39;99428.59;;;3.60;100.00
29433;BME280;16405;53.964;13.448;2023-04-01T00:43:18;99440.56;;;3.64;100.00
29433;BME280;16405;53.964;13.448;2023-04-01T00:45:48;99437.19;;;3.62;100.00
29433;BME280;16405;53.964;13.448;2023-04-01T00:48:23;99429.59;;;3.56;100.00
29433;BME280;16405;53.964;13.448;2023-04-01T00:51:06;99427.69;;;3.61;100.00
29433;BME280;16405;53.964;13.448;2023-04-01T00:53:36;99437.59;;;3.51;100.00
29433;BME280;16405;53.964;13.448;2023-04-01T00:56:15;99438.78;;;3.42;100.00
29433;BME280;16405;53.964;13.448;2023-04-01T00:59:06;99430.31;;;3.37;100.00
29433;BME280;16405;53.964;13.448;2023-04-01T01:01:42;99440.78;;;3.36;100.00
29433;BME280;16405;53.964;13.448;2023-04-01T01:04:32;99442.47;;;3.37;100.00
29433;BME280;16405;53.964;13.448;2023-04-01T01:07:32;99444.44;;;3.30;100.00
29433;BME280;16405;53.964;13.448;2023-04-01T01:10:11;99438.53;;;3.26;100.00
29433;BME280;16405;53.964;13.448;2023-04-01T01:16:25;99447.97;;;3.29;100.00
29433;BME280;16405;53.964;13.448;2023-04-01T01:19:10;99442.16;;;3.22;100.00
29433;BME280;16405;53.964;13.448;2023-04-01T01:22:18;99452.34;;;3.28;100.00
29433;BME280;16405;53.964;13.448;2023-04-01T01:25:04;99442.03;;;3.25;100.00
29433;BME280;16405;53.964;13.448;2023-04-01T01:27:41;99458.03;;;3.38;100.00
29433;BME280;16405;53.964;13.448;2023-04-01T01:30:42;99463.47;;;3.32;100.00
29433;BME280;16405;53.964;13.448;2023-04-01T01:33:38;99470.16;;;3.16;100.00
29433;BME280;16405;53.964;13.448;2023-04-01T01:36:11;99453.41;;;3.23;100.00
29433;BME280;16405;53.964;13.448;2023-04-01T01:38:39;99456.00;;;3.23;100.00
29433;BME280;16405;53.964;13.448;2023-04-01T01:41:16;99459.75;;;3.16;100.00
29433;BME280;16405;53.964;13.448;2023-04-01T01:43:52;99471.94;;;3.14;100.00
29433;BME280;16405;53.964;13.448;2023-04-01T01:46:22;99462.34;;;3.16;100.00
29433;BME280;16405;53.964;13.448;2023-04-01T01:48:52;99462.44;;;3.13;100.00
29433;BME280;16405;53.964;13.448;2023-04-01T01:51:21;99456.56;;;3.07;100.00
29433;BME280;16405;53.964;13.448;2023-04-01T01:53:47;99467.63;;;3.13;100.00
29433;BME280;16405;53.964;13.448;2023-04-01T01:56:13;99465.81;;;3.15;100.00
29433;BME280;16405;53.964;13.448;2023-04-01T01:58:49;99462.44;;;3.13;100.00
29433;BME280;16405;53.964;13.448;2023-04-01T02:01:28;99470.06;;;3.17;100.00
29433;BME280;16405;53.964;13.448;2023-04-01T02:03:56;99462.59;;;3.08;100.00
29433;BME280;16405;53.964;13.448;2023-04-01T02:06:35;99462.66;;;3.06;100.00
29433;BME280;16405;53.964;13.448;2023-04-01T02:09:08;99459.16;;;3.07;100.00
29433;BME280;16405;53.964;13.448;2023-04-01T02:12:01;99471.72;;;2.96;100.00
29433;BME280;16405;53.964;13.448;2023-04-01T02:15:05;99478.53;;;2.99;100.00
29433;BME280;16405;53.964;13.448;2023-04-01T02:17:34;99463.03;;;2.96;100.00
29433;BME280;16405;53.964;13.448;2023-04-01T02:20:23;99467.34;;;2.97;100.00
29433;BME280;16405;53.964;13.448;2023-04-01T02:22:54;99497.63;;;2.98;100.00
29433;BME280;16405;53.964;13.448;2023-04-01T02:25:33;99479.44;;;2.98;100.00
29433;BME280;16405;53.964;13.448;2023-04-01T02:28:06;99472.94;;;2.86;100.00
29433;BME280;16405;53.964;13.448;2023-04-01T02:30:35;99478.75;;;2.93;100.00
29433;BME280;16405;53.964;13.448;2023-04-01T02:33:04;99493.44;;;2.94;100.00
29433;BME280;16405;53.964;13.448;2023-04-01T02:35:39;99483.66;;;2.77;100.00
29433;BME280;16405;53.964;13.448;2023-04-01T02:38:13;99481.69;;;2.83;100.00
29433;BME280;16405;53.964;13.448;2023-04-01T02:40:58;99494.41;;;2.91;100.00
29433;BME280;16405;53.964;13.448;2023-04-01T02:43:24;99491.81;;;2.91;100.00
29433;BME280;16405;53.964;13.448;2023-04-01T02:45:50;99503.31;;;2.84;100.00
29433;BME280;16405;53.964;13.448;2023-04-01T02:48:23;99503.91;;;2.92;100.00
29433;BME280;16405;53.964;13.448;2023-04-01T02:50:50;99498.50;;;2.98;100.00
29433;BME280;16405;53.964;13.448;2023-04-01T02:53:17;99506.41;;;2.95;100.00
29433;BME280;16405;53.964;13.448;2023-04-01T02:55:42;99524.59;;;2.95;100.00
29433;BME280;16405;53.964;13.448;2023-04-01T02:58:13;99514.09;;;2.98;100.00
29433;BME280;16405;53.964;13.448;2023-04-01T03:00:39;99515.03;;;2.96;100.00
29433;BME280;16405;53.964;13.448;2023-04-01T03:03:05;99522.59;;;3.03;100.00
29433;BME280;16405;53.964;13.448;2023-04-01T03:05:31;99515.91;;;2.96;100.00
29433;BME280;16405;53.964;13.448;2023-04-01T03:07:56;99520.25;;;2.96;100.00
29433;BME280;16405;53.964;13.448;2023-04-01T03:10:22;99528.97;;;2.95;100.00
29433;BME280;16405;53.964;13.448;2023-04-01T03:12:51;99529.91;;;2.92;100.00
29433;BME280;16405;53.964;13.448;2023-04-01T03:15:18;99523.06;;;2.90;100.00
29433;BME280;16405;53.964;13.448;2023-04-01T03:17:44;99535.91;;;2.94;100.00
29433;BME280;16405;53.964;13.448;2023-04-01T03:20:11;99538.44;;;2.96;100.00
29433;BME280;16405;53.964;13.448;2023-04-01T03:22:37;99535.13;;;2.92;100.00
29433;BME280;16405;53.964;13.448;2023-04-01T03:25:13;99539.59;;;2.87;100.00
29433;BME280;16405;53.964;13.448;2023-04-01T03:27:39;99561.19;;;2.89;100.00
29433;BME280;16405;53.964;13.448;2023-04-01T03:30:06;99545.75;;;2.84;100.00
29433;BME280;16405;53.964;13.448;2023-04-01T03:32:37;99544.59;;;2.93;100.00
29433;BME280;16405;53.964;13.448;2023-04-01T03:35:03;99546.41;;;2.91;100.00
29433;BME280;16405;53.964;13.448;2023-04-01T03:37:30;99548.03;;;2.94;100.00
29433;BME280;16405;53.964;13.448;2023-04-01T03:39:56;99549.22;;;2.85;100.00
29433;BME280;16405;53.964;13.448;2023-04-01T03:42:22;99554.38;;;2.86;100.00
29433;BME280;16405;53.964;13.448;2023-04-01T03:44:57;99562.28;;;2.83;100.00
29433;BME280;16405;53.964;13.448;2023-04-01T03:47:22;99556.16;;;2.84;100.00
29433;BME280;16405;53.964;13.448;2023-04-01T03:49:48;99552.91;;;2.78;100.00
29433;BME280;16405;53.964;13.448;2023-04-01T03:52:14;99566.75;;;2.78;100.00
29433;BME280;16405;53.964;13.448;2023-04-01T03:54:47;99561.47;;;2.81;100.00
29433;BME280;16405;53.964;13.448;2023-04-01T03:57:13;99567.31;;;2.88;100.00
29433;BME280;16405;53.964;13.448;2023-04-01T03:59:39;99568.31;;;2.84;100.00
29433;BME280;16405;53.964;13.448;2023-04-01T04:02:05;99587.31;;;2.86;100.00
29433;BME280;16405;53.964;13.448;2023-04-01T04:04:38;99581.22;;;2.87;100.00
29433;BME280;16405;53.964;13.448;2023-04-01T04:07:07;99601.28;;;2.83;100.00
29433;BME280;16405;53.964;13.448;2023-04-01T04:09:33;99590.91;;;2.82;100.00
29433;BME280;16405;53.964;13.448;2023-04-01T04:12:00;99589.72;;;2.92;100.00
29433;BME280;16405;53.964;13.448;2023-04-01T04:14:29;99587.97;;;2.93;100.00
29433;BME280;16405;53.964;13.448;2023-04-01T04:16:54;99595.72;;;2.94;100.00
29433;BME280;16405;53.964;13.448;2023-04-01T04:19:20;99601.91;;;2.90;100.00
29433;BME280;16405;53.964;13.448;2023-04-01T04:21:46;99595.13;;;2.86;100.00
29433;BME280;16405;53.964;13.448;2023-04-01T04:24:12;99602.13;;;2.84;100.00
29433;BME280;16405;53.964;13.448;2023-04-01T04:26:38;99606.41;;;2.85;100.00
29433;BME280;16405;53.964;13.448;2023-04-01T04:29:12;99610.59;;;2.89;100.00
29433;BME280;16405;53.964;13.448;2023-04-01T04:31:38;99631.69;;;2.81;100.00
29433;BME280;16405;53.964;13.448;2023-04-01T04:34:04;99616.13;;;2.80;100.00
29433;BME280;16405;53.964;13.448;2023-04-01T04:36:30;99626.41;;;2.83;100.00
29433;BME280;16405;53.964;13.448;2023-04-01T04:38:58;99623.75;;;2.84;100.00
29433;BME280;16405;53.964;13.448;2023-04-01T04:41:28;99625.28;;;2.92;100.00
29433;BME280;16405;53.964;13.448;2023-04-01T04:43:56;99631.41;;;2.89;100.00
29433;BME280;16405;53.964;13.448;2023-04-01T04:46:22;99625.47;;;2.85;100.00
29433;BME280;16405;53.964;13.448;2023-04-01T04:48:54;99629.88;;;2.83;100.00
29433;BME280;16405;53.964;13.448;2023-04-01T04:51:21;99629.81;;;2.85;100.00
29433;BME280;16405;53.964;13.448;2023-04-01T04:53:48;99632.41;;;2.85;100.00
29433;BME280;16405;53.964;13.448;2023-04-01T04:56:24;99653.31;;;2.82;100.00
29433;BME280;16405;53.964;13.448;2023-04-01T04:58:51;99638.53;;;2.84;100.00
29433;BME280;16405;53.964;13.448;2023-04-01T05:01:18;99646.16;;;2.88;100.00
29433;BME280;16405;53.964;13.448;2023-04-01T05:03:49;99642.72;;;2.88;100.00
29433;BME280;16405;53.964;13.448;2023-04-01T05:06:16;99645.47;;;2.83;100.00
29433;BME280;16405;53.964;13.448;2023-04-01T05:08:44;99648.75;;;2.88;100.00
29433;BME280;16405;53.964;13.448;2023-04-01T05:11:19;99651.03;;;2.99;100.00
29433;BME280;16405;53.964;13.448;2023-04-01T05:13:45;99660.31;;;3.06;100.00
29433;BME280;16405;53.964;13.448;2023-04-01T05:16:21;99654.41;;;3.01;100.00
29433;BME280;16405;53.964;13.448;2023-04-01T05:18:47;99658.94;;;2.96;100.00
29433;BME280;16405;53.964;13.448;2023-04-01T05:21:14;99659.00;;;2.93;100.00
29433;BME280;16405;53.964;13.448;2023-04-01T05:23:41;99667.72;;;2.92;100.00
29433;BME280;16405;53.964;13.448;2023-04-01T05:26:09;99670.97;;;2.99;100.00
29433;BME280;16405;53.964;13.448;2023-04-01T05:28:40;99666.94;;;2.90;100.00
29433;BME280;16405;53.964;13.448;2023-04-01T05:31:07;99665.28;;;2.87;100.00
29433;BME280;16405;53.964;13.448;2023-04-01T05:33:33;99678.03;;;2.95;100.00
29433;BME280;16405;53.964;13.448;2023-04-01T05:36:14;99673.94;;;2.88;100.00
29433;BME280;16405;53.964;13.448;2023-04-01T05:38:49;99675.03;;;2.81;100.00
29433;BME280;16405;53.964;13.448;2023-04-01T05:41:16;99676.72;;;2.82;100.00
29433;BME280;16405;53.964;13.448;2023-04-01T05:43:42;99682.69;;;2.85;100.00
29433;BME280;16405;53.964;13.448;2023-04-01T05:46:13;99686.97;;;2.86;100.00
29433;BME280;16405;53.964;13.448;2023-04-01T05:48:38;99695.59;;;2.87;100.00
29433;BME280;16405;53.964;13.448;2023-04-01T05:51:04;99693.66;;;2.94;100.00
29433;BME280;16405;53.964;13.448;2023-04-01T05:53:30;99689.53;;;2.88;100.00
29433;BME280;16405;53.964;13.448;2023-04-01T05:55:56;99694.91;;;2.82;100.00
29433;BME280;16405;53.964;13.448;2023-04-01T05:58:22;99700.63;;;2.93;100.00
29433;BME280;16405;53.964;13.448;2023-04-01T06:00:59;99697.47;;;2.83;100.00
29433;BME280;16405;53.964;13.448;2023-04-01T06:03:25;99699.16;;;2.84;100.00
29433;BME280;16405;53.964;13.448;2023-04-01T06:05:51;99699.28;;;2.81;100.00
29433;BME280;16405;53.964;13.448;2023-04-01T06:08:24;99697.63;;;2.79;100.00
29433;BME280;16405;53.964;13.448;2023-04-01T06:20:03;99713.41;;;2.73;100.00
29433;BME280;16405;53.964;13.448;2023-04-01T06:22:49;99720.28;;;2.74;100.00
29433;BME280;16405;53.964;13.448;2023-04-01T06:25:38;99722.09;;;2.72;100.00
29433;BME280;16405;53.964;13.448;2023-04-01T06:35:06;99728.00;;;2.77;100.00
29433;BME280;16405;53.964;13.448;2023-04-01T06:41:32;99734.19;;;2.73;100.00
29433;BME280;16405;53.964;13.448;2023-04-01T06:44:24;99747.22;;;2.71;100.00
29433;BME280;16405;53.964;13.448;2023-04-01T06:46:59;99740.22;;;2.75;100.00
29433;BME280;16405;53.964;13.448;2023-04-01T06:49:48;99745.72;;;2.64;100.00
29433;BME280;16405;53.964;13.448;2023-04-01T06:55:35;99754.16;;;2.72;100.00
29433;BME280;16405;53.964;13.448;2023-04-01T06:58:25;99750.03;;;2.63;100.00
29433;BME280;16405;53.964;13.448;2023-04-01T07:00:58;99762.16;;;2.64;100.00
29433;BME280;16405;53.964;13.448;2023-04-01T07:03:41;99763.81;;;2.67;100.00
29433;BME280;16405;53.964;13.448;2023-04-01T07:06:15;99758.44;;;2.73;100.00
29433;BME280;16405;53.964;13.448;2023-04-01T07:08:44;99764.44;;;2.75;100.00
29433;BME280;16405;53.964;13.448;2023-04-01T07:11:29;99772.09;;;2.80;100.00
29433;BME280;16405;53.964;13.448;2023-04-01T07:14:35;99767.66;;;2.83;100.00
29433;BME280;16405;53.964;13.448;2023-04-01T07:17:25;99768.66;;;2.79;100.00
29433;BME280;16405;53.964;13.448;2023-04-01T07:20:29;99784.88;;;2.87;100.00
29433;BME280;16405;53.964;13.448;2023-04-01T07:23:32;99780.38;;;2.93;100.00
29433;BME280;16405;53.964;13.448;2023-04-01T07:26:27;99780.44;;;2.91;100.00
29433;BME280;16405;53.964;13.448;2023-04-01T07:41:19;99830.38;;;2.73;100.00
29433;BME280;16405;53.964;13.448;2023-04-01T07:47:49;99829.53;;;2.72;100.00
29433;BME280;16405;53.964;13.448;2023-04-01T08:00:56;99837.63;;;2.61;100.00
29433;BME280;16405;53.964;13.448;2023-04-01T08:06:57;99849.00;;;2.57;100.00
29433;BME280;16405;53.964;13.448;2023-04-01T08:10:03;99847.22;;;2.59;100.00
29433;BME280;16405;53.964;13.448;2023-04-01T08:21:54;99866.13;;;2.64;100.00
29433;BME280;16405;53.964;13.448;2023-04-01T08:24:45;99879.09;;;2.66;100.00
29433;BME280;16405;53.964;13.448;2023-04-01T08:27:28;99872.94;;;2.69;100.00
29433;BME280;16405;53.964;13.448;2023-04-01T08:30:33;99885.91;;;2.70;100.00
29433;BME280;16405;53.964;13.448;2023-04-01T08:38:46;99888.31;;;2.76;100.00
29433;BME280;16405;53.964;13.448;2023-04-01T08:44:36;99896.25;;;2.72;100.00
29433;BME280;16405;53.964;13.448;2023-04-01T08:53:24;99895.38;;;2.73;100.00
29433;BME280;16405;53.964;13.448;2023-04-01T09:05:01;99931.84;;;2.70;100.00
29433;BME280;16405;53.964;13.448;2023-04-01T09:24:26;99944.50;;;2.82;100.00
29433;BME280;16405;53.964;13.448;2023-04-01T09:27:41;99949.50;;;2.90;100.00
29433;BME280;16405;53.964;13.448;2023-04-01T09:37:51;99958.91;;;2.94;100.00
29433;BME280;16405;53.964;13.448;2023-04-01T09:47:04;99986.28;;;2.74;100.00
29433;BME280;16405;53.964;13.448;2023-04-01T09:54:04;99971.56;;;2.75;100.00
29433;BME280;16405;53.964;13.448;2023-04-01T10:27:58;100037.44;;;2.74;100.00
29433;BME280;16405;53.964;13.448;2023-04-01T10:31:14;100035.75;;;2.73;100.00
29433;BME280;16405;53.964;13.448;2023-04-01T10:37:07;100039.81;;;2.83;100.00
29433;BME280;16405;53.964;13.448;2023-04-01T10:43:13;100040.56;;;3.21;100.00
29433;BME280;16405;53.964;13.448;2023-04-01T11:15:31;100094.47;;;3.16;100.00
29433;BME280;16405;53.964;13.448;2023-04-01T11:46:19;100109.16;;;3.17;100.00
29433;BME280;16405;53.964;13.448;2023-04-01T11:49:46;100114.53;;;3.11;100.00
29433;BME280;16405;53.964;13.448;2023-04-01T11:55:35;100124.34;;;2.99;100.00
29433;BME280;16405;53.964;13.448;2023-04-01T12:17:50;100157.63;;;3.21;100.00
29433;BME280;16405;53.964;13.448;2023-04-01T12:24:05;100163.25;;;3.04;100.00
29433;BME280;16405;53.964;13.448;2023-04-01T12:52:42;100202.72;;;3.21;100.00
29433;BME280;16405;53.964;13.448;2023-04-01T12:55:37;100204.72;;;3.10;100.00
29433;BME280;16405;53.964;13.448;2023-04-01T13:01:08;100216.19;;;3.01;100.00
29433;BME280;16405;53.964;13.448;2023-04-01T13:07:29;100225.56;;;3.08;100.00
29433;BME280;16405;53.964;13.448;2023-04-01T13:21:54;100246.16;;;2.80;100.00
29433;BME280;16405;53.964;13.448;2023-04-01T13:24:52;100252.41;;;2.72;100.00
29433;BME280;16405;53.964;13.448;2023-04-01T13:27:42;100256.84;;;2.68;100.00
29433;BME280;16405;53.964;13.448;2023-04-01T13:30:44;100261.69;;;2.83;100.00
29433;BME280;16405;53.964;13.448;2023-04-01T13:36:24;100271.19;;;2.84;100.00
29433;BME280;16405;53.964;13.448;2023-04-01T13:41:46;100274.66;;;2.85;100.00
29433;BME280;16405;53.964;13.448;2023-04-01T13:44:33;100277.09;;;2.93;100.00
29433;BME280;16405;53.964;13.448;2023-04-01T14:28:21;100337.34;;;2.73;99.40
29433;BME280;16405;53.964;13.448;2023-04-01T14:31:34;100318.28;;;2.72;99.90
29433;BME280;16405;53.964;13.448;2023-04-01T14:49:20;100332.19;;;2.70;97.18
29433;BME280;16405;53.964;13.448;2023-04-01T14:51:55;100351.03;;;2.81;96.96
29433;BME280;16405;53.964;13.448;2023-04-01T14:54:37;100358.16;;;2.71;96.63
29433;BME280;16405;53.964;13.448;2023-04-01T14:57:20;100355.63;;;2.68;96.17
29433;BME280;16405;53.964;13.448;2023-04-01T15:02:59;100369.72;;;2.56;95.69
29433;BME280;16405;53.964;13.448;2023-04-01T15:09:17;100380.22;;;2.50;95.72
29433;BME280;16405;53.964;13.448;2023-04-01T15:14:53;100385.41;;;2.52;95.70
29433;BME280;16405;53.964;13.448;2023-04-01T15:20:31;100393.38;;;2.41;95.47
29433;BME280;16405;53.964;13.448;2023-04-01T15:23:31;100398.53;;;2.44;94.99
29433;BME280;16405;53.964;13.448;2023-04-01T15:39:14;100419.28;;;2.47;94.45
29433;BME280;16405;53.964;13.448;2023-04-01T15:42:21;100397.00;;;2.34;93.58
29433;BME280;16405;53.964;13.448;2023-04-01T15:52:50;100426.97;;;2.52;92.49
29433;BME280;16405;53.964;13.448;2023-04-01T16:04:49;100455.09;;;2.30;91.42
29433;BME280;16405;53.964;13.448;2023-04-01T16:08:06;100462.06;;;2.26;91.34
29433;BME280;16405;53.964;13.448;2023-04-01T16:25:41;100522.28;;;1.97;91.22
29433;BME280;16405;53.964;13.448;2023-04-01T16:31:29;100498.94;;;1.94;90.88
29433;BME280;16405;53.964;13.448;2023-04-01T16:34:17;100505.03;;;1.93;90.58
29433;BME280;16405;53.964;13.448;2023-04-01T16:37:12;100511.97;;;1.91;91.43
29433;BME280;16405;53.964;13.448;2023-04-01T16:43:11;100525.75;;;1.96;92.04
29433;BME280;16405;53.964;13.448;2023-04-01T16:51:24;100540.47;;;1.97;91.19
29433;BME280;16405;53.964;13.448;2023-04-01T16:54:13;100549.13;;;1.96;90.88
29433;BME280;16405;53.964;13.448;2023-04-01T17:00:25;100562.94;;;1.96;90.46
29433;BME280;16405;53.964;13.448;2023-04-01T17:12:08;100575.28;;;1.80;90.24
29433;BME280;16405;53.964;13.448;2023-04-01T17:15:53;100577.06;;;1.77;90.22
29433;BME280;16405;53.964;13.448;2023-04-01T17:20:54;100602.09;;;1.82;89.27
29433;BME280;16405;53.964;13.448;2023-04-01T17:26:11;100604.75;;;1.78;89.16
29433;BME280;16405;53.964;13.448;2023-04-01T17:28:56;100611.69;;;1.77;89.21
29433;BME280;16405;53.964;13.448;2023-04-01T17:35:05;100629.88;;;1.74;88.68
29433;BME280;16405;53.964;13.448;2023-04-01T18:02:14;100687.56;;;1.14;81.78
29433;BME280;16405;53.964;13.448;2023-04-01T18:11:00;100690.25;;;1.05;81.93
29433;BME280;16405;53.964;13.448;2023-04-01T18:22:43;100703.25;;;0.99;81.46
29433;BME280;16405;53.964;13.448;2023-04-01T18:25:36;100708.47;;;0.94;81.96
29433;BME280;16405;53.964;13.448;2023-04-01T18:45:28;100732.75;;;0.81;81.82
29433;BME280;16405;53.964;13.448;2023-04-01T18:50:56;100758.66;;;0.84;81.34
29433;BME280;16405;53.964;13.448;2023-04-01T18:53:49;100753.50;;;0.82;82.08
29433;BME280;16405;53.964;13.448;2023-04-01T18:56:34;100758.72;;;0.78;81.54
29433;BME280;16405;53.964;13.448;2023-04-01T18:59:26;100766.50;;;0.78;81.91
29433;BME280;16405;53.964;13.448;2023-04-01T19:02:58;100768.19;;;0.79;81.95
29433;BME280;16405;53.964;13.448;2023-04-01T19:05:38;100792.38;;;0.81;81.42
29433;BME280;16405;53.964;13.448;2023-04-01T19:08:31;100772.53;;;0.80;81.80
29433;BME280;16405;53.964;13.448;2023-04-01T19:11:13;100782.91;;;0.80;81.95
29433;BME280;16405;53.964;13.448;2023-04-01T19:20:42;100792.34;;;0.84;82.51
29433;BME280;16405;53.964;13.448;2023-04-01T19:35:29;100800.94;;;0.94;80.84
29433;BME280;16405;53.964;13.448;2023-04-01T19:41:40;100811.22;;;1.09;80.21
29433;BME280;16405;53.964;13.448;2023-04-01T19:50:57;100841.41;;;1.24;79.99
29433;BME280;16405;53.964;13.448;2023-04-01T19:53:51;100842.28;;;1.20;80.83
29433;BME280;16405;53.964;13.448;2023-04-01T19:56:45;100843.19;;;1.14;80.64
29433;BME280;16405;53.964;13.448;2023-04-01T20:15:06;100859.56;;;1.24;78.91
29433;BME280;16405;53.964;13.448;2023-04-01T20:17:56;100873.34;;;1.31;78.89
29433;BME280;16405;53.964;13.448;2023-04-01T20:20:33;100882.88;;;1.27;79.46
29433;BME280;16405;53.964;13.448;2023-04-01T20:26:21;100903.63;;;1.30;79.96
29433;BME280;16405;53.964;13.448;2023-04-01T20:35:31;100909.63;;;1.34;80.31
29433;BME280;16405;53.964;13.448;2023-04-01T20:50:48;100930.41;;;1.38;79.64
29433;BME280;16405;53.964;13.448;2023-04-01T21:02:52;100941.56;;;1.47;80.80
29433;BME280;16405;53.964;13.448;2023-04-01T21:21:16;100965.69;;;1.66;81.77
29433;BME280;16405;53.964;13.448;2023-04-01T21:26:50;100975.22;;;1.62;81.98
29433;BME280;16405;53.964;13.448;2023-04-01T21:38:48;100981.22;;;1.72;81.80
29433;BME280;16405;53.964;13.448;2023-04-01T21:42:09;100993.41;;;1.67;81.97
29433;BME280;16405;53.964;13.448;2023-04-01T21:53:59;100993.41;;;1.60;81.44
29433;BME280;16405;53.964;13.448;2023-04-01T21:56:56;101002.97;;;1.54;80.69
29433;BME280;16405;53.964;13.448;2023-04-01T22:03:21;101005.63;;;1.40;79.73
29433;BME280;16405;53.964;13.448;2023-04-01T22:06:06;101010.84;;;1.38;79.68
29433;BME280;16405;53.964;13.448;2023-04-01T22:12:07;101029.88;;;1.31;79.75
29433;BME280;16405;53.964;13.448;2023-04-01T22:18:09;101042.00;;;1.32;79.55
29433;BME280;16405;53.964;13.448;2023-04-01T22:20:45;101044.53;;;1.40;79.98
29433;BME280;16405;53.964;13.448;2023-04-01T22:23:28;101046.28;;;1.41;80.38
29433;BME280;16405;53.964;13.448;2023-04-01T22:26:32;101041.91;;;1.44;80.48
29433;BME280;16405;53.964;13.448;2023-04-01T22:29:17;101054.91;;;1.48;80.79
29433;BME280;16405;53.964;13.448;2023-04-01T22:35:08;101052.31;;;1.40;81.05
29433;BME280;16405;53.964;13.448;2023-04-01T22:43:42;101076.56;;;1.31;80.07
29433;BME280;16405;53.964;13.448;2023-04-01T22:46:46;101068.81;;;1.25;79.32
29433;BME280;16405;53.964;13.448;2023-04-01T22:51:54;101078.31;;;1.32;77.38
29433;BME280;16405;53.964;13.448;2023-04-01T22:54:34;101081.75;;;1.39;77.12
29433;BME280;16405;53.964;13.448;2023-04-01T22:57:14;101086.91;;;1.47;77.49
29433;BME280;16405;53.964;13.448;2023-04-01T23:00:06;101077.38;;;1.49;77.42
29433;BME280;16405;53.964;13.448;2023-04-01T23:06:06;101092.91;;;1.62;78.16
29433;BME280;16405;53.964;13.448;2023-04-01T23:12:13;101079.94;;;1.61;77.72
29433;BME280;16405;53.964;13.448;2023-04-01T23:14:46;101089.41;;;1.70;78.03
29433;BME280;16405;53.964;13.448;2023-04-01T23:17:36;101096.31;;;1.72;77.93
29433;BME280;16405;53.964;13.448;2023-04-01T23:20:26;101095.47;;;1.73;77.85
29433;BME280;16405;53.964;13.448;2023-04-01T23:29:01;101107.53;;;1.80;78.48
29433;BME280;16405;53.964;13.448;2023-04-01T23:34:39;101119.66;;;1.86;78.79
29433;BME280;16405;53.964;13.448;2023-04-01T23:37:16;101132.63;;;1.86;79.05
29433;BME280;16405;53.964;13.448;2023-04-01T23:39:46;101119.66;;;1.81;78.67
29433;BME280;16405;53.964;13.448;2023-04-01T23:42:52;101129.19;;;1.82;78.75
29433;BME280;16405;53.964;13.448;2023-04-01T23:45:18;101128.28;;;1.83;78.50
29433;BME280;16405;53.964;13.448;2023-04-01T23:47:47;101131.75;;;1.85;78.47
29433;BME280;16405;53.964;13.448;2023-04-01T23:50:24;101137.78;;;1.94;79.17
29433;BME280;16405;53.964;13.448;2023-04-01T23:53:21;101143.84;;;1.91;78.73
29433;BME280;16405;53.964;13.448;2023-04-01T23:55:57;101145.59;;;1.91;79.52
29433;BME280;16405;53.964;13.448;2023-04-01T23:58:48;101144.72;;;1.89;79.36
